Chahbahar, Iran
Current Conditions -  °F | °C
As of 11:00 AM on Thursday 18 Dec 2014 (Local Time) from OIZI Reporting Station
Clear Clear  
Wind Chill: 20°   Ceiling: Unl
Heat Index: 20°   Visibility: 6mi
Dew Point: -6°   Wind: 7mph
Humidity: 17%   Direction: 200°SSW
Pressure: 30.15"   Gusts: NA
Location:  25.28°N, 60.62°E
Report Text: OIZI 180800Z 20006KT CAVOK 20/M06 Q1021
Loading
Personal Weather Stations






























Interactive Weather Map New forecast layout! Learn more

10-Day Weather Forecast

Advertisements
Track Severe Weather on mobile